Latest Weather Observations for Broome Port

IDW60801

Issued at 5:14 pm WST Tuesday 31 March 2015 (issued every 30 minutes, with the page automatically refreshed every 10 minutes)

About weather observations | Map of weather stations | Latest weather observations for WA | Other Formats
Station Details ID: 003102 Name: BROOME NTC AWS Lat: -18.00 Lon: 122.22 Height: 0.0 m
Data from the previous 72 hours. | See also: Recent months for locations in Western Australia
Date/Time
WST
Temp
°C
App
Temp
°C
Dew
Point
Rel
Hum
%
Delta-T
°C
Wind Press
QNH
hPa
Press
MSL
hPa
Rain
since 9 am
mm
Dir
 
Spd
km/h
Gust
km/h
Spd
kts
Gust
kts
31/05:00pm 30.8 - - - - WNW 22 28 12 15 1009.8 1009.7 -
31/04:30pm 30.9 - - - - WNW 26 30 14 16 1009.7 1009.6 -
31/04:00pm 31.1 - - - - WNW 26 32 14 17 1009.6 1009.5 -
31/03:30pm 31.0 - - - - WNW 28 35 15 19 1009.6 1009.5 -
31/03:00pm 31.1 - - - - W 28 35 15 19 1009.5 1009.4 -
31/02:30pm 30.9 - - - - W 30 35 16 19 1009.6 1009.5 -
31/02:00pm 31.1 - - - - W 26 32 14 17 1009.8 1009.7 -
31/01:30pm 31.1 - - - - W 26 30 14 16 1010.0 1009.9 -
31/01:00pm 31.2 - - - - W 22 32 12 17 1010.5 1010.4 -
31/12:30pm 31.1 - - - - W 24 30 13 16 1010.9 1010.8 -
31/12:00pm 31.1 - - - - W 22 28 12 15 1011.4 1011.3 -
31/11:30am 31.1 - - - - WSW 19 24 10 13 1011.9 1011.8 -
31/11:00am 30.5 - - - - WSW 19 24 10 13 1012.4 1012.3 -
31/10:30am 30.2 - - - - WSW 20 26 11 14 1012.9 1012.8 -
31/10:00am 30.1 - - - - SW 22 28 12 15 1013.1 1013.0 -
31/09:30am 30.1 - - - - SW 24 28 13 15 1013.3 1013.2 -
31/09:00am 29.8 - - - - SW 24 28 13 15 1013.4 1013.3 -
31/08:30am 29.2 - - - - SW 22 24 12 13 1013.5 1013.4 -
31/08:00am 29.0 - - - - SW 22 28 12 15 1013.4 1013.3 -
31/07:30am 28.9 - - - - SW 22 28 12 15 1013.2 1013.1 -
31/07:00am 29.0 - - - - SW 22 28 12 15 1013.0 1012.9 -
31/06:30am 29.0 - - - - SW 22 28 12 15 1012.7 1012.6 -
31/06:00am 28.5 - - - - SSW 22 24 12 13 1012.3 1012.2 -
31/05:30am 28.8 - - - - SSW 22 28 12 15 1012.0 1011.9 -
31/05:00am 29.5 - - - - SW 24 28 13 15 1011.5 1011.4 -
31/04:30am 29.7 - - - - SW 24 26 13 14 1011.3 1011.2 -
31/04:00am 29.7 - - - - WSW 22 26 12 14 1011.1 1011.0 -
31/03:30am 29.8 - - - - WSW 20 24 11 13 1010.9 1010.8 -
31/03:00am 29.8 - - - - WSW 24 30 13 16 1010.8 1010.7 -
31/02:30am 29.7 - - - - WSW 24 28 13 15 1010.8 1010.7 -
31/02:00am 29.8 - - - - W 22 28 12 15 1010.7 1010.6 -
31/01:30am 29.9 - - - - W 22 28 12 15 1010.9 1010.8 -
31/01:00am 30.0 - - - - WSW 22 28 12 15 1011.2 1011.1 -
31/12:30am 30.0 - - - - W 20 26 11 14 1011.4 1011.3 -
31/12:00am 30.0 - - - - W 15 22 8 12 1011.8 1011.7 -
 
Date/Time
WST
Temp
°C
App
Temp
°C
Dew
Point
Rel
Hum
%
Delta-T
°C
Wind Press
QNH
hPa
Press
MSL
hPa
Rain
since 9 am
mm
Dir
 
Spd
km/h
Gust
km/h
Spd
kts
Gust
kts
30/11:30pm 30.1 - - - - W 19 22 10 12 1012.0 1011.9 -
30/11:00pm 30.2 - - - - W 15 20 8 11 1012.3 1012.2 -
30/10:30pm 30.2 - - - - W 15 20 8 11 1012.6 1012.5 -
30/10:00pm 30.3 - - - - W 17 22 9 12 1012.7 1012.6 -
30/09:30pm 30.3 - - - - W 15 20 8 11 1012.9 1012.8 -
30/09:00pm 30.4 - - - - W 15 20 8 11 1012.9 1012.8 -
30/08:30pm 30.4 - - - - W 15 20 8 11 1012.9 1012.8 -
30/08:00pm 30.4 - - - - W 17 22 9 12 1012.5 1012.4 -
30/07:30pm 30.5 - - - - W 17 22 9 12 1012.0 1011.9 -
30/07:00pm 30.5 - - - - W 20 24 11 13 1011.5 1011.4 -
30/06:30pm 30.5 - - - - WNW 19 24 10 13 1011.1 1011.0 -
30/06:00pm 30.5 - - - - WNW 20 24 11 13 1010.7 1010.6 -
30/05:30pm 30.5 - - - - WNW 20 28 11 15 1010.5 1010.4 -
30/05:00pm 30.8 - - - - WNW 24 28 13 15 1010.2 1010.1 -
30/04:30pm 31.3 - - - - WNW 22 28 12 15 1010.0 1009.9 -
30/04:00pm 31.3 - - - - WNW 24 28 13 15 1010.0 1009.9 -
30/03:30pm 31.6 - - - - WNW 22 24 12 13 1009.9 1009.8 -
30/03:00pm 31.8 - - - - NW 19 20 10 11 1010.0 1009.9 -
30/02:30pm 31.7 - - - - WNW 15 17 8 9 1010.3 1010.2 -
30/02:00pm 32.0 - - - - WNW 13 17 7 9 1010.3 1010.2 -
30/01:30pm 31.9 - - - - WSW 11 15 6 8 1010.6 1010.5 -
30/01:00pm 31.9 - - - - SW 9 11 5 6 1010.8 1010.7 -
30/12:30pm 31.6 - - - - SW 6 9 3 5 1011.1 1011.0 -
30/12:00pm 31.5 - - - - WSW 7 9 4 5 1011.5 1011.4 -
30/11:30am 31.3 - - - - SW 9 11 5 6 1011.7 1011.6 -
30/11:00am 31.4 - - - - SW 7 11 4 6 1012.1 1012.0 -
30/10:30am 31.1 - - - - SSW 9 13 5 7 1012.4 1012.3 -
30/10:00am 30.7 - - - - SSW 11 15 6 8 1012.7 1012.6 -
30/09:30am 29.9 - - - - S 15 17 8 9 1012.8 1012.7 -
30/09:00am 29.5 - - - - S 17 20 9 11 1012.8 1012.7 -
30/08:30am 29.2 - - - - S 17 20 9 11 1012.9 1012.8 -
30/08:00am 28.9 - - - - S 20 22 11 12 1012.6 1012.5 -
30/07:30am 28.7 - - - - S 22 24 12 13 1012.4 1012.3 -
30/07:00am 28.7 - - - - S 22 24 12 13 1012.1 1012.0 -
30/06:30am 28.9 - - - - SSW 22 26 12 14 1011.9 1011.8 -
30/06:00am 28.6 - - - - SSW 26 30 14 16 1011.6 1011.5 -
30/05:30am 28.4 - - - - SSW 26 30 14 16 1011.5 1011.4 -
30/05:00am 28.4 - - - - SSW 24 28 13 15 1011.3 1011.2 -
30/04:30am 28.5 - - - - SSW 22 24 12 13 1011.2 1011.1 -
30/04:00am 28.6 - - - - SSW 15 19 8 10 1011.0 1010.9 -
30/03:30am 29.5 - - - - SW 15 19 8 10 1011.2 1011.1 -
30/03:00am 29.5 - - - - W 6 9 3 5 1011.1 1011.0 -
30/02:30am 29.5 - - - - WSW 9 11 5 6 1011.3 1011.2 -
30/02:00am 29.4 - - - - SSW 13 17 7 9 1011.2 1011.1 -
30/01:30am 29.6 - - - - WSW 6 11 3 6 1011.3 1011.2 -
30/01:00am 29.2 - - - - W 6 7 3 4 1011.3 1011.2 -
30/12:30am 28.8 - - - - NW 7 9 4 5 1011.5 1011.4 -
30/12:00am 28.8 - - - - NW 7 9 4 5 1012.0 1011.9 -
 
Date/Time
WST
Temp
°C
App
Temp
°C
Dew
Point
Rel
Hum
%
Delta-T
°C
Wind Press
QNH
hPa
Press
MSL
hPa
Rain
since 9 am
mm
Dir
 
Spd
km/h
Gust
km/h
Spd
kts
Gust
kts
29/11:30pm 28.8 - - - - NNW 9 13 5 7 1012.4 1012.3 -
29/11:00pm 28.6 - - - - NW 15 17 8 9 1012.7 1012.6 -
29/10:30pm 28.6 - - - - NW 15 20 8 11 1013.0 1012.9 -
29/10:00pm 28.7 - - - - NW 13 17 7 9 1013.2 1013.1 -
29/09:30pm 28.8 - - - - NNW 13 17 7 9 1013.1 1013.0 -
29/09:00pm 28.3 - - - - NNW 9 13 5 7 1013.2 1013.1 -
29/08:30pm 28.0 - - - - N 11 13 6 7 1012.8 1012.7 -
29/08:00pm 27.5 - - - - N 11 13 6 7 1012.7 1012.6 -
29/07:30pm 27.6 - - - - N 9 11 5 6 1012.5 1012.4 -
29/07:00pm 27.4 - - - - N 9 11 5 6 1012.2 1012.1 -
29/06:30pm 27.5 - - - - N 13 17 7 9 1012.0 1011.9 -
29/06:00pm 27.4 - - - - N 22 28 12 15 1011.8 1011.7 -
29/05:30pm 29.2 - - - - NNE 20 54 11 29 1012.0 1011.9 -
29/05:00pm 31.0 - - - - E 13 17 7 9 1011.2 1011.1 -
29/04:30pm 31.1 - - - - E 11 17 6 9 1011.0 1010.9 -
29/04:00pm 31.1 - - - - E 13 17 7 9 1011.1 1011.0 -
29/03:30pm 31.1 - - - - E 15 19 8 10 1010.9 1010.8 -
29/03:00pm 31.2 - - - - E 19 24 10 13 1010.8 1010.7 -
29/02:30pm 31.0 - - - - E 17 20 9 11 1010.7 1010.6 -
29/02:00pm 30.8 - - - - E 17 24 9 13 1010.9 1010.8 -
29/01:30pm 31.2 - - - - ENE 17 26 9 14 1010.9 1010.8 -
29/01:00pm 31.4 - - - - ENE 20 32 11 17 1011.1 1011.0 -
29/12:30pm 30.6 - - - - E 13 19 7 10 1011.5 1011.4 -
29/12:00pm 30.1 - - - - E 13 17 7 9 1012.0 1011.9 -
29/11:30am 29.8 - - - - E 17 24 9 13 1012.2 1012.1 -
29/11:00am 29.4 - - - - E 17 24 9 13 1012.5 1012.4 -
29/10:30am 29.0 - - - - E 26 33 14 18 1012.7 1012.6 -
29/10:00am 28.4 - - - - E 24 30 13 16 1012.7 1012.6 -
29/09:30am 27.5 - - - - E 24 30 13 16 1013.0 1012.9 -
29/09:00am 27.1 - - - - E 22 28 12 15 1013.1 1013.0 -
29/08:30am 26.8 - - - - E 24 30 13 16 1012.8 1012.7 -
29/08:00am 26.8 - - - - ESE 22 35 12 19 1012.5 1012.4 -
29/07:30am 26.7 - - - - ESE 24 33 13 18 1012.0 1011.9 -
29/07:00am 26.6 - - - - E 26 33 14 18 1011.6 1011.5 -
29/06:30am 26.5 - - - - ESE 30 37 16 20 1011.2 1011.1 -
29/06:00am 26.3 - - - - ESE 32 37 17 20 1010.9 1010.8 -
29/05:30am 26.2 - - - - E 28 33 15 18 1010.6 1010.5 -
29/05:00am 26.1 - - - - ESE 32 35 17 19 1010.2 1010.1 -
29/04:30am 26.0 - - - - ESE 30 33 16 18 1010.4 1010.3 -
29/04:00am 25.7 - - - - E 32 35 17 19 1010.3 1010.2 -
29/03:30am 25.3 - - - - E 28 32 15 17 1010.4 1010.3 -
29/03:00am 25.4 - - - - E 24 30 13 16 1010.3 1010.2 -
29/02:30am 25.1 - - - - E 26 30 14 16 1010.4 1010.3 -
29/02:00am 25.3 - - - - ESE 26 32 14 17 1010.6 1010.5 -
29/01:30am 25.0 - - - - ESE 32 35 17 19 1010.6 1010.5 -
29/01:00am 25.1 - - - - ESE 33 39 18 21 1010.7 1010.6 -
29/12:30am 25.3 - - - - ESE 35 43 19 23 1011.5 1011.4 -
29/12:00am 25.2 - - - - ESE 41 46 22 25 1011.6 1011.5 -
 
Date/Time
WST
Temp
°C
App
Temp
°C
Dew
Point
Rel
Hum
%
Delta-T
°C
Wind Press
QNH
hPa
Press
MSL
hPa
Rain
since 9 am
mm
Dir
 
Spd
km/h
Gust
km/h
Spd
kts
Gust
kts
28/11:30pm 25.3 - - - - ESE 41 50 22 27 1012.2 1012.1 -
28/11:00pm 25.5 - - - - ESE 44 52 24 28 1012.5 1012.4 -
28/10:30pm 25.3 - - - - ESE 39 48 21 26 1012.6 1012.5 -
28/10:00pm 25.0 - - - - ESE 37 41 20 22 1012.9 1012.8 -
28/09:30pm 24.8 - - - - ESE 41 50 22 27 1013.3 1013.2 -
28/09:00pm 26.0 - - - - E 48 57 26 31 1013.2 1013.1 -
28/08:30pm 27.3 - - - - ENE 33 41 18 22 1012.8 1012.7 -
28/08:00pm 28.0 - - - - ENE 22 26 12 14 1011.8 1011.7 -
28/07:30pm 28.3 - - - - E 20 24 11 13 1011.3 1011.2 -
28/07:00pm 28.3 - - - - E 24 28 13 15 1011.0 1010.9 -
28/06:30pm 28.7 - - - - ENE 26 30 14 16 1010.6 1010.5 -
28/06:00pm 27.4 - - - - ENE 37 56 20 30 1010.2 1010.1 -
28/05:42pm 29.6 - - - - ENE 24 50 13 27 1009.6 1009.5 -
28/05:30pm 31.7 - - - - ENE 20 24 11 13 1009.2 1009.1 -

Other Formats:

Comma delimited format used in spreadsheet applications
http://www.bom.gov.au/fwo/IDW60801/IDW60801.95202.axf

JavaScript Object Notation format (JSON) in row-major order
http://www.bom.gov.au/fwo/IDW60801/IDW60801.95202.json